Time;durP1;ratioP1;P1;durP2;ratioP2;P2;SDS_P1;SDS_P2;PMS_P1;PMS_P2;Temp;Humidity;BMP_temperature;BMP_pressure;BME280_temperature;BME280_humidity;BME280_pressure;Samples;Min_cycle;Max_cycle;Signal;HPM_P1;HPM_P2
2023/04/21 00:01:31;;;;;;;8.37;6.33;;;7.70;21.60;;;;;;5069905;28;20500;-52
2023/04/21 00:03:58;;;;;;;6.73;6.00;;;7.70;20.50;;;;;;5062647;28;20460;-52
2023/04/21 00:06:25;;;;;;;7.93;6.93;;;7.60;20.50;;;;;;5065991;28;20588;-52
2023/04/21 00:08:52;;;;;;;11.07;6.60;;;7.60;76.90;;;;;;5066622;28;20455;-54
2023/04/21 00:11:18;;;;;;;13.57;6.37;;;7.60;82.00;;;;;;5068720;28;20502;-53
2023/04/21 00:13:45;;;;;;;10.40;7.00;;;7.60;94.40;;;;;;5067191;28;20488;-53
2023/04/21 00:16:13;;;;;;;12.83;6.63;;;7.50;93.60;;;;;;5067862;28;20903;-53
2023/04/21 00:18:40;;;;;;;9.23;6.67;;;7.50;95.80;;;;;;5066370;28;20489;-53
2023/04/21 00:21:06;;;;;;;12.87;6.47;;;7.50;92.40;;;;;;5065053;28;20895;-54
2023/04/21 00:23:33;;;;;;;10.23;6.67;;;7.40;93.80;;;;;;5061138;28;20914;-54
2023/04/21 00:26:01;;;;;;;12.90;6.20;;;7.40;99.60;;;;;;5058504;28;20491;-54
2023/04/21 00:28:28;;;;;;;8.17;6.40;;;7.40;99.90;;;;;;5069988;28;20557;-54
2023/04/21 00:30:54;;;;;;;9.00;6.00;;;7.30;99.90;;;;;;5071492;28;20460;-53
2023/04/21 00:33:22;;;;;;;14.77;6.73;;;7.30;99.90;;;;;;5069352;28;20468;-54
2023/04/21 00:35:49;;;;;;;6.73;5.70;;;7.20;99.90;;;;;;5060005;28;20476;-53
2023/04/21 00:38:15;;;;;;;9.03;6.30;;;7.20;99.90;;;;;;5069702;28;20969;-53
2023/04/21 00:40:42;;;;;;;7.00;6.40;;;7.10;99.90;;;;;;5061323;28;20907;-56
2023/04/21 00:43:09;;;;;;;8.23;5.30;;;7.10;99.90;;;;;;5066025;28;20472;-56
2023/04/21 00:45:35;;;;;;;15.93;6.40;;;7.10;99.90;;;;;;5069527;28;20511;-57
2023/04/21 00:48:02;;;;;;;15.67;6.57;;;7.10;99.90;;;;;;5065976;28;20507;-56
2023/04/21 00:50:30;;;;;;;7.83;6.43;;;7.00;99.90;;;;;;5067983;28;20503;-55
2023/04/21 00:52:57;;;;;;;11.70;6.80;;;7.00;99.90;;;;;;5063250;28;20952;-56
2023/04/21 00:55:24;;;;;;;11.00;6.40;;;7.00;99.90;;;;;;5068612;28;20537;-56
2023/04/21 00:57:51;;;;;;;12.93;6.33;;;7.00;99.90;;;;;;5061209;28;20499;-57
2023/04/21 01:00:19;;;;;;;9.47;6.33;;;7.00;99.90;;;;;;5069951;28;20510;-56
2023/04/21 01:02:45;;;;;;;8.20;5.80;;;7.00;99.90;;;;;;5070471;28;20469;-56
2023/04/21 01:05:12;;;;;;;8.60;5.90;;;7.00;99.90;;;;;;5066761;28;20476;-56
2023/04/21 01:07:40;;;;;;;11.30;6.70;;;7.00;99.90;;;;;;5066710;28;20495;-56
2023/04/21 01:10:08;;;;;;;8.20;5.97;;;7.00;99.90;;;;;;5068877;28;20487;-56
2023/04/21 01:12:42;;;;;;;9.20;6.90;;;7.00;99.90;;;;;;5069475;28;20517;-57
2023/04/21 01:15:10;;;;;;;11.43;6.90;;;7.00;99.90;;;;;;5063138;28;20461;-55
2023/04/21 01:17:37;;;;;;;17.70;8.13;;;7.00;99.90;;;;;;5065863;28;20819;-56
2023/04/21 01:20:08;;;;;;;14.30;6.83;;;7.00;99.90;;;;;;5068792;28;20485;-56
2023/04/21 01:22:37;;;;;;;15.30;7.97;;;6.90;99.90;;;;;;5060446;28;20464;-56
2023/04/21 01:25:06;;;;;;;9.97;6.53;;;6.90;99.90;;;;;;5051122;28;20490;-56
2023/04/21 01:27:32;;;;;;;8.90;6.40;;;6.90;99.90;;;;;;5062768;28;20466;-57
2023/04/21 01:29:59;;;;;;;20.87;7.57;;;6.90;99.90;;;;;;5057817;28;20881;-57
2023/04/21 01:32:28;;;;;;;13.33;7.90;;;6.90;99.90;;;;;;5066061;28;20497;-56
2023/04/21 01:34:56;;;;;;;15.70;7.33;;;6.90;99.90;;;;;;5068053;28;20475;-56
2023/04/21 01:37:25;;;;;;;13.47;7.63;;;6.90;99.90;;;;;;5067068;28;20488;-56
2023/04/21 01:39:55;;;;;;;10.03;7.30;;;6.90;99.90;;;;;;5068290;28;20506;-56
2023/04/21 01:42:29;;;;;;;10.63;7.50;;;6.90;99.90;;;;;;5067116;28;20492;-56
2023/04/21 01:44:57;;;;;;;13.17;7.37;;;7.00;99.90;;;;;;5063736;28;20474;-56
2023/04/21 01:47:24;;;;;;;10.60;7.30;;;7.00;99.90;;;;;;5065695;28;20490;-56
2023/04/21 01:49:51;;;;;;;12.73;7.60;;;7.00;99.90;;;;;;5067782;28;20481;-56
2023/04/21 01:52:18;;;;;;;20.13;8.10;;;7.00;99.90;;;;;;5060485;28;20609;-56
2023/04/21 01:54:44;;;;;;;16.63;7.93;;;6.90;99.90;;;;;;5060048;28;20456;-56
2023/04/21 01:57:12;;;;;;;11.57;8.20;;;7.00;99.90;;;;;;5068779;28;20537;-57
2023/04/21 01:59:39;;;;;;;10.20;7.50;;;7.00;99.90;;;;;;5071152;28;20478;-56
2023/04/21 02:02:06;;;;;;;14.47;7.20;;;7.00;99.90;;;;;;5068284;28;20525;-56
2023/04/21 02:04:32;;;;;;;15.13;8.17;;;7.10;99.90;;;;;;5060940;28;20520;-55
2023/04/21 02:06:59;;;;;;;14.67;8.33;;;7.10;99.90;;;;;;5060311;22;20509;-49
2023/04/21 02:09:26;;;;;;;20.57;6.90;;;7.00;99.90;;;;;;5033150;28;20819;-49
2023/04/21 02:11:52;;;;;;;10.80;7.00;;;7.00;99.90;;;;;;5033725;28;20812;-50
2023/04/21 02:14:20;;;;;;;13.13;8.00;;;6.90;99.90;;;;;;5031207;28;20538;-49
2023/04/21 02:16:47;;;;;;;14.33;8.37;;;7.00;99.90;;;;;;5032499;28;20492;-50
2023/04/21 02:19:14;;;;;;;9.60;6.90;;;7.00;99.90;;;;;;5030533;28;20530;-49
2023/04/21 02:21:40;;;;;;;14.27;7.40;;;7.00;99.90;;;;;;5033764;28;20519;-50
2023/04/21 02:24:07;;;;;;;17.67;8.53;;;7.00;99.90;;;;;;5031118;28;20524;-49
2023/04/21 02:26:33;;;;;;;20.30;8.30;;;7.00;99.90;;;;;;5032786;28;20993;-50
2023/04/21 02:29:00;;;;;;;22.13;8.93;;;7.00;99.90;;;;;;5037242;28;20461;-50
2023/04/21 02:31:28;;;;;;;10.57;7.90;;;7.00;99.90;;;;;;5040246;28;20462;-49
2023/04/21 02:33:55;;;;;;;17.97;8.97;;;7.10;74.30;;;;;;5042096;28;20467;-50
2023/04/21 02:36:21;;;;;;;13.20;8.53;;;7.10;21.00;;;;;;5037342;28;20492;-49
2023/04/21 02:38:48;;;;;;;9.70;7.70;;;7.10;23.10;;;;;;5034519;28;20522;-49
2023/04/21 02:41:15;;;;;;;9.93;8.50;;;7.10;26.40;;;;;;5034028;28;21076;-49
2023/04/21 02:43:41;;;;;;;14.20;9.00;;;7.20;29.30;;;;;;5031591;28;20457;-49
2023/04/21 02:46:08;;;;;;;14.63;8.03;;;7.30;35.40;;;;;;5032785;28;20532;-49
2023/04/21 02:48:36;;;;;;;14.30;8.00;;;7.20;40.00;;;;;;5032911;28;20524;-49
2023/04/21 02:51:03;;;;;;;14.70;8.07;;;7.20;42.10;;;;;;5036255;28;20583;-49
2023/04/21 02:53:30;;;;;;;10.87;8.33;;;7.30;45.60;;;;;;5032757;28;20874;-49
2023/04/21 02:55:56;;;;;;;16.23;8.67;;;7.20;48.20;;;;;;5035160;28;20490;-49
2023/04/21 02:58:23;;;;;;;11.23;7.87;;;7.10;48.10;;;;;;5037867;28;20496;-49
2023/04/21 03:00:50;;;;;;;13.20;8.40;;;7.10;47.30;;;;;;5030542;28;20543;-49
2023/04/21 03:03:16;;;;;;;10.50;8.27;;;7.10;48.70;;;;;;5033420;28;20474;-48
2023/04/21 03:05:44;;;;;;;15.33;9.30;;;7.20;49.80;;;;;;5032326;28;20485;-50
2023/04/21 03:08:11;;;;;;;10.50;8.30;;;7.20;55.10;;;;;;5031152;28;20466;-50
2023/04/21 03:10:38;;;;;;;10.00;8.00;;;7.10;56.50;;;;;;5033088;28;20953;-49
2023/04/21 03:13:04;;;;;;;12.80;8.30;;;7.10;56.70;;;;;;5029278;28;20953;-49
2023/04/21 03:15:31;;;;;;;9.57;8.37;;;7.00;56.50;;;;;;5032476;28;20458;-50
2023/04/21 03:17:58;;;;;;;12.83;8.87;;;7.00;56.70;;;;;;5032446;28;20474;-50
2023/04/21 03:20:24;;;;;;;20.07;8.63;;;6.90;54.30;;;;;;5030918;28;20910;-49
2023/04/21 03:22:54;;;;;;;21.00;9.50;;;6.90;52.50;;;;;;5035951;28;20458;-49
2023/04/21 03:25:21;;;;;;;11.33;9.67;;;6.90;50.50;;;;;;5028454;28;20469;-49
2023/04/21 03:27:47;;;;;;;21.57;8.70;;;6.90;52.00;;;;;;5037507;28;20472;-49
2023/04/21 03:30:14;;;;;;;10.93;8.70;;;6.90;52.40;;;;;;5030863;28;21112;-49
2023/04/21 03:32:41;;;;;;;9.83;8.60;;;6.90;53.90;;;;;;5031642;28;20458;-49
2023/04/21 03:35:07;;;;;;;16.90;8.63;;;6.90;51.80;;;;;;5027676;28;20507;-49
2023/04/21 03:37:34;;;;;;;14.07;9.27;;;6.90;53.40;;;;;;5030131;28;20543;-49
2023/04/21 03:40:04;;;;;;;17.63;8.57;;;6.90;53.50;;;;;;5029985;28;20461;-50
2023/04/21 03:42:31;;;;;;;21.27;8.40;;;6.80;55.30;;;;;;5035078;28;20804;-49
2023/04/21 03:45:01;;;;;;;20.03;10.83;;;6.90;57.00;;;;;;5031417;28;20462;-49
2023/04/21 03:47:28;;;;;;;8.97;8.07;;;6.90;55.10;;;;;;5030774;28;20481;-50
2023/04/21 03:49:55;;;;;;;16.07;8.70;;;6.90;62.50;;;;;;5029701;28;21005;-49
2023/04/21 03:52:21;;;;;;;15.50;8.93;;;6.90;63.70;;;;;;5031948;28;21026;-51
2023/04/21 03:54:48;;;;;;;9.30;8.37;;;6.90;60.30;;;;;;5030523;28;20954;-50
2023/04/21 03:57:16;;;;;;;17.17;9.30;;;6.90;61.90;;;;;;5030934;28;20896;-50
2023/04/21 03:59:43;;;;;;;10.77;9.17;;;6.80;65.30;;;;;;5030800;28;20503;-49
2023/04/21 04:02:10;;;;;;;21.73;8.77;;;6.80;66.30;;;;;;5031877;28;20515;-49
2023/04/21 04:04:36;;;;;;;10.27;8.40;;;6.80;66.90;;;;;;5029337;28;20465;-49
2023/04/21 04:07:03;;;;;;;12.90;10.00;;;6.70;66.60;;;;;;5031850;28;20501;-50
2023/04/21 04:09:30;;;;;;;12.90;9.63;;;6.70;64.90;;;;;;5033733;28;20891;-50
2023/04/21 04:11:56;;;;;;;24.03;10.30;;;6.90;66.40;;;;;;5032344;28;20468;-49
2023/04/21 04:14:25;;;;;;;15.60;8.63;;;6.90;74.90;;;;;;5028832;28;20466;-49
2023/04/21 04:16:51;;;;;;;17.40;9.70;;;6.90;69.50;;;;;;5030203;28;20482;-54
2023/04/21 04:19:18;;;;;;;14.97;9.03;;;6.80;76.00;;;;;;5023079;28;20470;-56
2023/04/21 04:21:44;;;;;;;11.40;9.83;;;6.80;71.70;;;;;;5029448;28;20490;-56
2023/04/21 04:24:12;;;;;;;14.53;8.80;;;6.80;74.10;;;;;;5028949;28;20535;-55
2023/04/21 04:26:39;;;;;;;16.83;10.10;;;6.80;72.80;;;;;;5029463;28;20489;-54
2023/04/21 04:29:09;;;;;;;14.00;9.70;;;6.80;73.50;;;;;;5028562;28;20540;-54
2023/04/21 04:31:37;;;;;;;11.53;8.90;;;6.80;73.60;;;;;;5028155;28;20465;-56
2023/04/21 04:34:03;;;;;;;13.50;9.50;;;6.90;72.30;;;;;;5028553;28;20978;-56
2023/04/21 04:36:30;;;;;;;11.60;9.73;;;6.90;73.80;;;;;;5028691;28;20539;-55
2023/04/21 04:38:57;;;;;;;18.70;10.93;;;6.90;74.40;;;;;;5030237;28;20953;-56
2023/04/21 04:41:23;;;;;;;15.67;9.07;;;7.00;75.00;;;;;;5030323;28;20487;-54
2023/04/21 04:43:51;;;;;;;11.70;9.20;;;7.00;79.10;;;;;;5019769;28;20462;-55
2023/04/21 04:46:19;;;;;;;11.20;10.03;;;7.10;80.20;;;;;;5023606;28;20489;-56
2023/04/21 04:48:47;;;;;;;12.43;9.90;;;7.10;82.50;;;;;;5026703;28;20466;-55
2023/04/21 04:51:13;;;;;;;15.10;9.77;;;7.20;87.90;;;;;;5028828;28;20470;-56
2023/04/21 04:53:40;;;;;;;14.37;9.80;;;7.20;90.10;;;;;;5031331;28;20462;-57
2023/04/21 04:56:07;;;;;;;11.83;9.30;;;7.20;92.10;;;;;;5028433;28;20986;-56
2023/04/21 04:58:33;;;;;;;12.80;9.70;;;7.20;90.20;;;;;;5027237;28;20470;-56
2023/04/21 05:01:11;;;;;;;12.97;8.93;;;7.30;93.10;;;;;;5034645;28;20994;-57
2023/04/21 05:03:37;;;;;;;13.93;9.90;;;7.40;96.90;;;;;;5029134;28;20813;-56
2023/04/21 05:06:06;;;;;;;10.57;8.90;;;7.50;99.90;;;;;;5031232;28;20563;-56
2023/04/21 05:08:32;;;;;;;17.00;10.10;;;7.60;99.90;;;;;;5023764;28;20449;-56
2023/04/21 05:10:59;;;;;;;13.10;9.30;;;7.70;99.90;;;;;;5025900;28;20454;-56
2023/04/21 05:13:25;;;;;;;14.97;9.37;;;7.80;99.90;;;;;;5028480;28;20465;-50
2023/04/21 05:15:57;;;;;;;11.80;9.70;;;7.90;99.90;;;;;;5024713;28;20505;-49
2023/04/21 05:18:24;;;;;;;17.70;9.57;;;7.90;99.90;;;;;;5024080;28;20878;-49
2023/04/21 05:20:51;;;;;;;11.10;9.90;;;8.10;99.90;;;;;;5028406;28;21014;-49
2023/04/21 05:23:18;;;;;;;14.43;9.97;;;8.20;99.90;;;;;;5030646;28;20883;-50
2023/04/21 05:25:45;;;;;;;16.57;9.47;;;8.30;99.90;;;;;;5029478;28;20482;-50
2023/04/21 05:28:12;;;;;;;13.00;9.77;;;8.40;99.90;;;;;;5030547;28;20684;-49
2023/04/21 05:30:38;;;;;;;13.40;9.10;;;8.50;99.90;;;;;;5023429;28;20466;-49
2023/04/21 05:33:05;;;;;;;12.50;10.03;;;8.60;99.90;;;;;;5027766;28;21034;-49
2023/04/21 05:35:32;;;;;;;24.17;10.10;;;8.60;99.90;;;;;;5033218;28;20472;-49
2023/04/21 05:37:58;;;;;;;11.10;9.30;;;8.70;99.90;;;;;;5035405;28;20821;-49
2023/04/21 05:40:26;;;;;;;11.23;9.13;;;8.80;99.90;;;;;;5029157;28;20953;-49
2023/04/21 05:42:53;;;;;;;21.50;10.93;;;9.00;99.90;;;;;;5034063;28;20463;-49
2023/04/21 05:45:20;;;;;;;15.57;8.63;;;9.10;99.90;;;;;;5043542;28;20515;-49
2023/04/21 05:47:46;;;;;;;11.17;9.80;;;9.10;99.90;;;;;;5033305;28;20505;-49
2023/04/21 05:50:13;;;;;;;11.77;9.13;;;9.20;99.90;;;;;;5033062;28;20468;-49
2023/04/21 05:52:39;;;;;;;11.37;9.00;;;9.30;99.90;;;;;;5034967;28;20452;-49
2023/04/21 05:55:07;;;;;;;12.50;8.97;;;9.40;99.90;;;;;;5025544;28;20997;-49
2023/04/21 05:57:35;;;;;;;12.00;9.43;;;9.50;99.90;;;;;;5032839;28;20903;-49
2023/04/21 06:00:01;;;;;;;10.50;8.90;;;9.70;99.90;;;;;;5035205;28;20458;-49
2023/04/21 06:02:28;;;;;;;13.57;9.17;;;9.80;99.90;;;;;;5033558;28;20535;-49
2023/04/21 06:04:55;;;;;;;13.80;8.50;;;9.90;34.70;;;;;;5034123;28;20444;-49
2023/04/21 06:07:21;;;;;;;13.43;9.27;;;10.00;22.10;;;;;;5037186;28;20496;-53
2023/04/21 06:09:51;;;;;;;8.50;7.70;;;10.10;41.70;;;;;;5041665;28;20511;-49
2023/04/21 06:12:17;;;;;;;10.70;8.73;;;10.30;26.50;;;;;;5049820;28;20461;-49
2023/04/21 06:14:45;;;;;;;17.20;9.60;;;10.50;62.10;;;;;;5034896;28;20445;-48
2023/04/21 06:17:16;;;;;;;11.70;9.20;;;10.60;69.20;;;;;;5036346;28;20465;-51
2023/04/21 06:19:43;;;;;;;19.57;8.90;;;10.80;74.70;;;;;;5037019;28;20454;-48
2023/04/21 06:22:09;;;;;;;12.20;8.90;;;11.20;81.40;;;;;;5034631;28;20490;-50
2023/04/21 06:24:36;;;;;;;17.57;9.57;;;11.50;99.90;;;;;;5027126;28;20469;-50
2023/04/21 06:27:03;;;;;;;10.10;8.53;;;11.60;99.90;;;;;;5023681;28;20488;-49
2023/04/21 06:29:29;;;;;;;9.70;8.70;;;11.60;99.90;;;;;;5029104;28;20462;-49
2023/04/21 06:31:57;;;;;;;16.80;8.60;;;11.80;99.90;;;;;;5032500;28;20442;-49
2023/04/21 06:34:24;;;;;;;13.67;9.13;;;11.90;99.90;;;;;;5032026;28;20505;-50
2023/04/21 06:36:50;;;;;;;12.93;8.40;;;12.00;99.90;;;;;;5028292;28;20478;-50
2023/04/21 06:39:17;;;;;;;9.63;8.23;;;12.10;99.90;;;;;;5032181;28;20534;-49
2023/04/21 06:41:43;;;;;;;9.77;8.60;;;12.10;99.90;;;;;;5030312;28;20551;-49
2023/04/21 06:44:12;;;;;;;13.33;8.50;;;12.20;99.90;;;;;;5028251;28;20893;-49
2023/04/21 06:46:39;;;;;;;10.07;8.53;;;12.40;99.90;;;;;;5026517;28;20515;-49
2023/04/21 06:49:07;;;;;;;12.63;9.33;;;12.70;60.10;;;;;;5027136;28;20914;-49
2023/04/21 06:51:34;;;;;;;14.43;10.30;;;13.20;83.00;;;;;;5019955;28;20518;-49
2023/04/21 06:54:00;;;;;;;16.73;9.43;;;13.40;99.90;;;;;;5030815;28;20504;-48
2023/04/21 06:56:27;;;;;;;15.57;8.83;;;13.40;99.90;;;;;;5031563;28;20580;-50
2023/04/21 06:58:54;;;;;;;14.27;9.73;;;13.30;99.90;;;;;;5032354;28;21006;-49
2023/04/21 07:01:23;;;;;;;14.03;8.87;;;13.40;99.90;;;;;;5027684;28;20547;-49
2023/04/21 07:03:50;;;;;;;11.10;8.17;;;13.40;99.90;;;;;;5030519;28;20443;-50
2023/04/21 07:06:18;;;;;;;13.33;8.10;;;13.60;99.90;;;;;;5019177;28;20495;-49
2023/04/21 07:08:44;;;;;;;16.63;8.90;;;13.80;99.90;;;;;;5030452;28;20508;-48
2023/04/21 07:11:11;;;;;;;12.27;8.00;;;14.10;99.90;;;;;;5029967;28;20473;-48
2023/04/21 07:13:37;;;;;;;13.70;9.50;;;14.40;99.90;;;;;;5031777;28;20524;-49
2023/04/21 07:16:05;;;;;;;9.97;8.40;;;14.40;99.90;;;;;;5024729;28;20544;-49
2023/04/21 07:18:33;;;;;;;8.93;8.13;;;14.10;99.90;;;;;;5029513;28;20461;-48
2023/04/21 07:21:00;;;;;;;10.10;8.80;;;14.30;99.90;;;;;;5029572;28;20462;-49
2023/04/21 07:23:27;;;;;;;12.90;7.90;;;14.40;99.90;;;;;;5030659;28;20870;-50
2023/04/21 07:25:54;;;;;;;12.97;7.93;;;14.50;99.90;;;;;;5030362;28;20473;-50
2023/04/21 07:28:21;;;;;;;13.33;8.83;;;14.60;99.90;;;;;;5022283;28;21130;-50
2023/04/21 07:30:47;;;;;;;10.13;8.10;;;14.80;99.90;;;;;;5028703;28;20454;-51
2023/04/21 07:33:14;;;;;;;12.67;8.73;;;14.80;99.90;;;;;;5021930;28;20467;-51
2023/04/21 07:35:41;;;;;;;9.97;8.40;;;14.70;99.90;;;;;;5027874;28;21089;-49
2023/04/21 07:38:07;;;;;;;11.30;9.00;;;14.80;99.90;;;;;;5022962;28;20462;-50
2023/04/21 07:40:35;;;;;;;9.27;8.37;;;15.00;99.90;;;;;;5028556;28;20460;-50
2023/04/21 07:43:02;;;;;;;9.20;8.20;;;15.50;99.90;;;;;;5024721;28;20487;-49
2023/04/21 07:45:28;;;;;;;9.23;8.27;;;15.60;99.90;;;;;;5019224;28;20513;-49
2023/04/21 07:47:55;;;;;;;15.77;8.73;;;16.00;99.90;;;;;;5026298;28;20465;-49
2023/04/21 07:50:22;;;;;;;10.17;7.83;;;16.50;99.90;;;;;;5026978;28;20577;-49
2023/04/21 07:52:48;;;;;;;12.30;8.50;;;16.40;99.90;;;;;;5029445;28;20492;-51
2023/04/21 07:55:15;;;;;;;24.83;9.70;;;16.40;99.90;;;;;;5025693;28;20460;-49
2023/04/21 07:57:43;;;;;;;10.00;8.77;;;16.40;99.90;;;;;;5026005;28;20481;-49
2023/04/21 08:00:11;;;;;;;14.07;8.40;;;16.50;99.90;;;;;;5027624;28;20535;-51
2023/04/21 08:02:37;;;;;;;12.43;8.20;;;16.20;99.90;;;;;;5023453;28;20889;-50
2023/04/21 08:05:04;;;;;;;22.40;8.20;;;16.70;99.90;;;;;;5027150;28;20524;-49
2023/04/21 08:07:31;;;;;;;13.43;8.70;;;17.00;99.90;;;;;;5030173;28;20482;-52
2023/04/21 08:09:59;;;;;;;11.70;8.17;;;17.40;99.90;;;;;;5028986;28;20466;-51
2023/04/21 08:12:25;;;;;;;11.10;7.63;;;17.60;99.90;;;;;;5025359;28;20954;-52
2023/04/21 08:14:53;;;;;;;13.87;8.30;;;17.60;99.90;;;;;;5030233;28;20793;-51
2023/04/21 08:17:20;;;;;;;12.30;8.53;;;17.70;99.90;;;;;;5028782;28;20482;-51
2023/04/21 08:19:46;;;;;;;14.30;8.87;;;18.00;99.90;;;;;;5026269;28;20477;-52
2023/04/21 08:22:13;;;;;;;13.50;6.83;;;18.30;99.90;;;;;;5024595;28;21067;-53
2023/04/21 08:24:39;;;;;;;12.80;8.57;;;18.10;99.90;;;;;;5026422;28;20463;-51
2023/04/21 08:27:06;;;;;;;23.77;8.10;;;18.10;99.90;;;;;;5030075;28;20536;-52
2023/04/21 08:29:33;;;;;;;12.43;7.40;;;18.30;99.90;;;;;;5028802;28;20515;-52
2023/04/21 08:32:00;;;;;;;16.10;8.13;;;18.70;99.90;;;;;;5028359;28;20457;-52
2023/04/21 08:34:27;;;;;;;13.43;7.47;;;18.80;99.90;;;;;;5027041;28;20466;-52
2023/04/21 08:36:54;;;;;;;12.00;7.27;;;18.70;99.90;;;;;;5028696;28;20517;-51
2023/04/21 08:39:20;;;;;;;7.70;6.90;;;18.60;99.90;;;;;;5029360;28;20998;-51
2023/04/21 08:41:47;;;;;;;11.13;7.93;;;19.00;99.90;;;;;;5025669;28;20483;-51
2023/04/21 08:44:14;;;;;;;8.20;7.20;;;18.60;99.90;;;;;;5025962;28;20536;-52
2023/04/21 08:46:42;;;;;;;11.73;7.83;;;19.60;99.90;;;;;;5030041;28;20482;-52
2023/04/21 08:49:12;;;;;;;13.50;8.07;;;20.20;99.90;;;;;;5029995;28;20471;-53
2023/04/21 08:51:40;;;;;;;11.13;6.97;;;20.60;99.90;;;;;;5026903;28;20463;-53
2023/04/21 08:54:08;;;;;;;7.90;7.20;;;21.30;99.90;;;;;;5025809;28;20486;-52
2023/04/21 08:56:34;;;;;;;10.40;7.93;;;21.60;99.90;;;;;;5027809;28;20478;-52
2023/04/21 08:59:01;;;;;;;9.30;7.57;;;21.40;99.90;;;;;;5028816;28;20458;-53
2023/04/21 09:01:28;;;;;;;16.67;8.10;;;21.60;99.90;;;;;;5028568;28;20451;-52
2023/04/21 09:04:14;;;;;;;9.17;7.70;;;21.20;99.90;;;;;;5028110;28;20490;-52
2023/04/21 09:06:42;;;;;;;10.30;7.03;;;20.20;99.90;;;;;;5029907;28;20543;-52
2023/04/21 09:09:09;;;;;;;7.60;6.87;;;21.10;99.90;;;;;;5027383;28;20465;-51
2023/04/21 09:11:35;;;;;;;14.20;7.90;;;21.30;99.90;;;;;;5027497;28;20450;-53
2023/04/21 09:14:02;;;;;;;11.30;7.60;;;21.30;99.90;;;;;;5028163;28;20909;-52
2023/04/21 09:16:32;;;;;;;8.10;7.30;;;21.10;99.90;;;;;;5027384;28;20525;-52
2023/04/21 09:19:00;;;;;;;11.83;7.87;;;21.70;99.90;;;;;;5029087;28;20455;-52
2023/04/21 09:21:28;;;;;;;11.00;6.70;;;21.40;99.90;;;;;;5028871;28;20965;-49
2023/04/21 09:23:56;;;;;;;8.07;7.27;;;21.30;99.90;;;;;;5027931;28;20486;-50
2023/04/21 09:26:23;;;;;;;8.13;7.10;;;21.70;99.90;;;;;;5026845;28;20474;-49
2023/04/21 09:28:51;;;;;;;11.50;7.37;;;21.60;99.90;;;;;;5026820;28;20509;-50
2023/04/21 09:31:20;;;;;;;11.33;7.40;;;21.60;99.90;;;;;;5025407;28;20512;-49
2023/04/21 09:33:48;;;;;;;24.70;7.40;;;21.60;99.90;;;;;;5027866;28;21028;-49
2023/04/21 09:36:19;;;;;;;18.50;7.57;;;21.80;99.90;;;;;;5026302;28;20474;-49
2023/04/21 09:38:49;;;;;;;7.83;6.80;;;20.90;99.90;;;;;;5024985;28;20529;-48
2023/04/21 09:41:18;;;;;;;10.47;7.93;;;21.50;99.90;;;;;;5027820;28;20466;-50
2023/04/21 09:43:45;;;;;;;10.90;6.70;;;22.40;99.90;;;;;;5028665;28;20479;-48
2023/04/21 09:46:12;;;;;;;14.93;7.53;;;22.80;99.90;;;;;;5028094;28;20898;-48
2023/04/21 09:48:43;;;;;;;8.40;7.43;;;21.70;99.90;;;;;;5026671;28;20462;-50
2023/04/21 09:51:12;;;;;;;10.10;7.70;;;22.30;99.90;;;;;;5027560;28;20982;-49
2023/04/21 09:53:40;;;;;;;11.93;6.97;;;22.20;99.90;;;;;;5025812;28;20466;-49
2023/04/21 09:56:11;;;;;;;11.27;6.60;;;21.40;99.90;;;;;;5028819;28;21053;-49
2023/04/21 09:58:44;;;;;;;15.70;6.37;;;21.90;99.90;;;;;;5025781;28;20460;-49
2023/04/21 10:01:13;;;;;;;13.67;6.80;;;22.90;99.90;;;;;;5020200;28;20580;-49
2023/04/21 10:03:40;;;;;;;7.80;7.00;;;22.40;99.90;;;;;;5024434;28;20895;-49
2023/04/21 10:06:07;;;;;;;8.27;7.20;;;22.70;99.90;;;;;;5026636;28;20496;-49
2023/04/21 10:08:35;;;;;;;13.53;7.50;;;22.60;99.90;;;;;;5026076;28;20476;-48
2023/04/21 10:11:03;;;;;;;14.10;6.13;;;22.40;99.90;;;;;;5024939;28;20455;-49
2023/04/21 10:13:30;;;;;;;9.50;6.43;;;21.80;99.90;;;;;;5031474;28;20459;-50
2023/04/21 10:16:06;;;;;;;9.83;7.03;;;22.00;99.90;;;;;;5025202;28;20509;-50
2023/04/21 10:18:37;;;;;;;6.70;5.80;;;22.70;99.90;;;;;;5026203;28;20541;-50
2023/04/21 10:21:05;;;;;;;10.43;6.37;;;22.30;99.90;;;;;;5034253;28;20486;-49
2023/04/21 10:23:36;;;;;;;9.50;6.00;;;23.10;99.90;;;;;;5031903;28;20483;-49
2023/04/21 10:26:06;;;;;;;9.20;6.73;;;23.20;99.90;;;;;;5029996;28;20478;-48
2023/04/21 10:28:45;;;;;;;17.43;6.07;;;23.50;99.90;;;;;;5032592;28;20459;-49
2023/04/21 10:31:22;;;;;;;12.73;6.40;;;22.50;99.90;;;;;;5028844;28;20490;-50
2023/04/21 10:34:20;;;;;;;16.07;6.30;;;23.00;99.90;;;;;;5026148;28;20455;-50
2023/04/21 10:37:08;;;;;;;10.10;6.60;;;22.10;99.90;;;;;;5029353;28;20486;-49
2023/04/21 10:39:36;;;;;;;10.60;7.50;;;22.40;99.90;;;;;;5028037;28;20459;-50
2023/04/21 10:42:21;;;;;;;14.73;6.40;;;22.20;99.90;;;;;;5028826;28;20517;-52
2023/04/21 10:44:52;;;;;;;7.37;6.67;;;21.70;99.90;;;;;;5030751;28;20504;-50
2023/04/21 10:47:26;;;;;;;14.13;6.23;;;20.90;99.90;;;;;;5030805;28;20996;-49
2023/04/21 10:49:55;;;;;;;7.93;6.83;;;21.10;99.90;;;;;;5029752;28;20510;-49
2023/04/21 10:52:21;;;;;;;11.57;6.90;;;21.20;99.90;;;;;;5028912;28;20463;-49
2023/04/21 10:55:07;;;;;;;10.20;6.13;;;21.50;99.90;;;;;;5024039;28;20513;-49
2023/04/21 10:57:35;;;;;;;6.40;5.80;;;22.30;99.90;;;;;;5030403;28;20475;-51
2023/04/21 11:00:05;;;;;;;9.40;6.00;;;22.50;99.90;;;;;;5030363;28;20999;-50
2023/04/21 11:02:34;;;;;;;10.40;6.30;;;22.80;99.90;;;;;;5030151;28;20475;-50
2023/04/21 11:05:01;;;;;;;6.33;5.80;;;23.00;99.90;;;;;;5028517;28;20975;-49
2023/04/21 11:07:28;;;;;;;8.10;6.33;;;22.80;99.90;;;;;;5028120;28;21023;-50
2023/04/21 11:09:58;;;;;;;7.67;5.63;;;22.20;99.90;;;;;;5034387;28;20463;-50
2023/04/21 11:12:28;;;;;;;7.90;5.07;;;21.20;99.90;;;;;;5030986;28;20536;-50
2023/04/21 11:14:56;;;;;;;6.43;5.40;;;21.40;99.90;;;;;;5029739;28;20566;-49
2023/04/21 11:17:23;;;;;;;6.93;5.27;;;21.70;99.90;;;;;;5029449;28;20849;-50
2023/04/21 11:19:53;;;;;;;8.23;5.50;;;22.00;99.90;;;;;;5030684;28;20455;-48
2023/04/21 11:22:21;;;;;;;7.73;5.07;;;22.40;99.90;;;;;;5030996;28;20490;-51
2023/04/21 11:24:53;;;;;;;8.47;6.00;;;23.00;99.90;;;;;;5023766;28;20961;-49
2023/04/21 11:27:21;;;;;;;6.77;5.97;;;22.70;99.90;;;;;;5026080;28;20479;-50
2023/04/21 11:29:48;;;;;;;9.00;5.80;;;22.30;99.90;;;;;;5025798;28;20459;-49
2023/04/21 11:32:15;;;;;;;11.10;5.07;;;22.30;99.90;;;;;;5026868;28;20505;-49
2023/04/21 11:34:43;;;;;;;8.37;6.03;;;22.00;99.90;;;;;;5030235;28;20505;-49
2023/04/21 11:37:15;;;;;;;6.70;5.47;;;21.40;99.90;;;;;;5029587;28;20478;-51
2023/04/21 11:39:42;;;;;;;10.90;5.80;;;21.90;99.90;;;;;;5026292;28;20467;-48
2023/04/21 11:42:10;;;;;;;5.63;5.10;;;21.00;99.90;;;;;;5025771;28;20454;-49
2023/04/21 11:44:38;;;;;;;7.03;4.80;;;21.30;99.90;;;;;;5026710;28;20474;-49
2023/04/21 11:47:15;;;;;;;7.97;4.73;;;21.60;99.90;;;;;;5029697;28;20495;-49
2023/04/21 11:49:46;;;;;;;5.57;5.03;;;21.90;99.90;;;;;;5028622;28;20597;-49
2023/04/21 11:52:22;;;;;;;5.67;5.07;;;21.90;99.90;;;;;;5017895;28;20827;-48
2023/04/21 11:54:51;;;;;;;6.30;5.67;;;21.60;99.90;;;;;;5026039;28;20498;-49
2023/04/21 11:57:18;;;;;;;7.77;5.63;;;22.00;99.90;;;;;;5028299;28;20478;-49
2023/04/21 11:59:46;;;;;;;6.33;5.20;;;22.20;99.90;;;;;;5027492;28;20455;-49
2023/04/21 12:02:21;;;;;;;7.13;5.90;;;21.90;99.90;;;;;;5027599;28;20470;-49
2023/04/21 12:04:57;;;;;;;6.87;5.43;;;21.30;99.90;;;;;;5029963;28;20494;-53
2023/04/21 12:07:25;;;;;;;6.47;5.30;;;21.40;99.90;;;;;;5027166;28;20508;-52
2023/04/21 12:09:52;;;;;;;13.77;5.33;;;21.80;90.40;;;;;;5030122;28;20463;-52
2023/04/21 12:12:19;;;;;;;7.80;5.97;;;22.20;99.90;;;;;;5027856;28;20505;-52
2023/04/21 12:14:45;;;;;;;19.23;5.00;;;22.20;99.90;;;;;;5029858;28;20509;-53
2023/04/21 12:17:12;;;;;;;8.40;5.97;;;22.90;99.90;;;;;;5027698;28;20483;-52
2023/04/21 12:19:40;;;;;;;5.63;5.20;;;22.10;99.90;;;;;;5028891;28;20960;-52
2023/04/21 12:22:08;;;;;;;7.27;5.00;;;22.50;99.90;;;;;;5024786;28;20509;-52
2023/04/21 12:24:37;;;;;;;8.67;6.13;;;22.00;99.90;;;;;;5030712;28;20467;-53
2023/04/21 12:27:04;;;;;;;6.97;5.87;;;21.90;99.90;;;;;;5024582;28;20475;-53
2023/04/21 12:29:31;;;;;;;11.90;5.70;;;22.00;99.90;;;;;;5030118;28;20451;-52
2023/04/21 12:31:57;;;;;;;6.90;5.13;;;22.50;99.90;;;;;;5031004;28;20459;-53
2023/04/21 12:34:24;;;;;;;6.03;5.33;;;22.20;99.90;;;;;;5025583;28;20504;-53
2023/04/21 12:36:51;;;;;;;10.30;5.77;;;22.50;99.90;;;;;;5025775;28;20537;-52
2023/04/21 12:39:18;;;;;;;11.43;5.10;;;22.80;99.90;;;;;;5026808;28;20462;-53
2023/04/21 12:41:47;;;;;;;8.80;6.07;;;22.80;99.90;;;;;;5027576;28;20949;-52
2023/04/21 12:44:14;;;;;;;6.10;5.50;;;23.30;95.60;;;;;;5024699;28;20530;-53
2023/04/21 12:46:41;;;;;;;8.63;5.07;;;23.30;99.90;;;;;;5028641;28;20478;-53